Time;durP1;ratioP1;P1;durP2;ratioP2;P2;SDS_P1;SDS_P2;PMS_P1;PMS_P2;Temp;Humidity;BMP_temperature;BMP_pressure;BME280_temperature;BME280_humidity;BME280_pressure;Samples;Min_cycle;Max_cycle;Signal;HPM_P1;HPM_P2
2021/12/04 00:01:52;;;;;;;42.33;19.05;;;5.50;99.90;;;;;;5028646;28;20059;-76
2021/12/04 00:04:23;;;;;;;44.45;18.63;;;5.50;99.90;;;;;;5028328;28;20040;-74
2021/12/04 00:06:49;;;;;;;40.15;19.25;;;5.60;99.90;;;;;;5028965;28;20276;-75
2021/12/04 00:09:17;;;;;;;37.15;19.80;;;5.70;99.90;;;;;;5045786;28;20025;-74
2021/12/04 00:11:52;;;;;;;41.05;19.92;;;5.70;99.90;;;;;;5045702;28;20060;-74
2021/12/04 00:14:19;;;;;;;39.75;19.08;;;5.70;99.90;;;;;;5044867;28;20028;-75
2021/12/04 00:16:45;;;;;;;34.90;17.63;;;5.80;99.90;;;;;;5044763;28;20033;-75
2021/12/04 00:19:11;;;;;;;37.08;17.00;;;5.90;99.90;;;;;;5045134;28;20025;-75
2021/12/04 00:21:37;;;;;;;40.55;20.92;;;5.90;99.90;;;;;;5044464;28;20021;-75
2021/12/04 00:24:03;;;;;;;38.40;19.05;;;5.80;99.90;;;;;;5045428;28;20091;-75
2021/12/04 00:26:29;;;;;;;41.40;20.88;;;5.90;99.90;;;;;;5045510;28;20021;-73
2021/12/04 00:28:55;;;;;;;39.22;19.88;;;5.90;99.90;;;;;;5044238;28;20039;-73
2021/12/04 00:31:20;;;;;;;36.00;18.83;;;5.90;99.90;;;;;;5045209;28;20033;-73
2021/12/04 00:33:47;;;;;;;40.72;20.10;;;5.90;99.90;;;;;;5045227;28;20017;-74
2021/12/04 00:36:27;;;;;;;43.20;19.95;;;6.00;99.90;;;;;;5045473;28;20056;-74
2021/12/04 00:49:55;;;;;;;36.05;18.13;;;6.20;99.90;;;;;;5043937;28;20216;-74
2021/12/04 00:52:21;;;;;;;37.55;19.13;;;6.20;99.90;;;;;;5043518;28;20021;-73
2021/12/04 00:54:47;;;;;;;37.33;18.50;;;6.20;99.90;;;;;;5044674;28;20045;-75
2021/12/04 00:57:14;;;;;;;36.50;17.35;;;6.20;99.90;;;;;;5043939;28;20248;-75
2021/12/04 00:59:40;;;;;;;33.60;16.73;;;6.20;99.90;;;;;;5043927;28;20205;-74
2021/12/04 01:02:06;;;;;;;32.45;16.67;;;6.30;99.90;;;;;;5043562;28;20021;-73
2021/12/04 01:04:32;;;;;;;28.92;16.52;;;6.30;99.90;;;;;;5043559;28;20132;-75
2021/12/04 01:06:58;;;;;;;32.10;17.58;;;6.40;99.90;;;;;;5043754;28;20060;-76
2021/12/04 01:09:25;;;;;;;31.17;17.17;;;6.40;99.90;;;;;;5044661;28;20048;-75
2021/12/04 01:11:53;;;;;;;32.72;18.15;;;6.30;99.90;;;;;;5043711;28;20037;-74
2021/12/04 01:14:22;;;;;;;33.97;18.02;;;6.30;99.90;;;;;;5044498;28;20057;-75
2021/12/04 01:16:49;;;;;;;28.80;15.95;;;6.30;99.90;;;;;;5043206;28;20116;-74
2021/12/04 01:19:14;;;;;;;31.52;16.85;;;6.20;99.90;;;;;;5042978;28;20152;-74
2021/12/04 01:21:42;;;;;;;33.50;17.42;;;6.20;99.90;;;;;;5043559;28;20308;-74
2021/12/04 01:24:08;;;;;;;33.88;18.33;;;6.30;99.90;;;;;;5043892;28;20049;-76
2021/12/04 01:26:34;;;;;;;30.40;16.90;;;6.30;99.90;;;;;;5044337;28;20017;-74
2021/12/04 01:29:00;;;;;;;40.55;18.60;;;6.40;99.90;;;;;;5044311;28;20037;-74
2021/12/04 01:31:26;;;;;;;34.33;18.27;;;6.50;99.90;;;;;;5042975;28;20064;-77
2021/12/04 01:33:52;;;;;;;35.60;17.80;;;6.50;99.90;;;;;;5044163;28;20025;-75
2021/12/04 01:36:18;;;;;;;42.83;19.63;;;6.50;99.90;;;;;;5044246;28;20021;-73
2021/12/04 01:38:44;;;;;;;35.70;19.45;;;6.60;99.90;;;;;;5042922;28;20021;-73
2021/12/04 01:41:09;;;;;;;33.00;17.55;;;6.60;99.90;;;;;;5042831;28;20021;-75
2021/12/04 01:43:35;;;;;;;32.55;17.48;;;6.60;99.90;;;;;;5043934;28;20021;-74
2021/12/04 01:46:01;;;;;;;29.52;15.88;;;6.70;99.90;;;;;;5044042;28;20017;-74
2021/12/04 01:48:27;;;;;;;33.60;17.83;;;6.70;99.90;;;;;;5043896;28;20378;-75
2021/12/04 01:50:54;;;;;;;29.55;16.58;;;6.80;99.90;;;;;;5043749;28;20040;-75
2021/12/04 01:53:20;;;;;;;28.70;16.02;;;6.70;99.90;;;;;;5043504;28;20324;-75
2021/12/04 01:55:46;;;;;;;33.13;17.13;;;6.80;99.90;;;;;;5044031;28;20023;-74
2021/12/04 01:58:12;;;;;;;29.10;15.90;;;6.70;99.90;;;;;;5043687;28;20072;-75
2021/12/04 02:00:41;;;;;;;30.77;15.95;;;6.70;99.90;;;;;;5043784;28;20348;-73
2021/12/04 02:03:09;;;;;;;30.13;15.68;;;6.70;99.90;;;;;;5043722;28;20072;-74
2021/12/04 02:05:39;;;;;;;32.35;16.77;;;6.70;99.90;;;;;;5043837;28;20043;-75
2021/12/04 02:08:06;;;;;;;33.15;16.67;;;6.70;99.90;;;;;;5042657;28;20057;-73
2021/12/04 02:10:32;;;;;;;31.20;17.95;;;6.70;99.90;;;;;;5042588;28;20047;-75
2021/12/04 02:12:58;;;;;;;29.58;15.93;;;6.70;99.90;;;;;;5009994;28;20041;-73
2021/12/04 02:15:23;;;;;;;27.00;15.27;;;6.60;99.90;;;;;;5026257;28;20055;-76
2021/12/04 02:17:49;;;;;;;30.23;15.98;;;6.70;99.90;;;;;;5043809;28;20059;-74
2021/12/04 02:20:21;;;;;;;34.58;17.67;;;6.60;99.90;;;;;;5025714;28;20021;-74
2021/12/04 02:22:48;;;;;;;29.88;15.90;;;6.60;99.90;;;;;;5044012;28;20052;-74
2021/12/04 02:25:14;;;;;;;32.35;16.20;;;6.60;99.90;;;;;;5025933;28;20041;-73
2021/12/04 02:27:40;;;;;;;31.17;15.82;;;6.60;99.90;;;;;;5042635;28;20052;-75
2021/12/04 02:30:11;;;;;;;30.05;15.57;;;6.60;99.90;;;;;;5043577;28;20247;-73
2021/12/04 02:32:38;;;;;;;25.75;15.02;;;6.60;99.90;;;;;;5042410;28;20081;-74
2021/12/04 02:35:06;;;;;;;23.73;14.07;;;6.70;99.90;;;;;;5043373;28;20052;-74
2021/12/04 02:37:33;;;;;;;24.50;14.60;;;6.70;99.90;;;;;;5047385;28;20017;-74
2021/12/04 02:39:59;;;;;;;23.33;14.00;;;6.70;99.90;;;;;;5048481;28;20021;-74
2021/12/04 02:42:28;;;;;;;26.95;14.25;;;6.70;99.90;;;;;;5045343;28;20025;-74
2021/12/04 02:44:54;;;;;;;27.85;15.13;;;6.70;99.90;;;;;;5047948;28;20211;-74
2021/12/04 02:47:20;;;;;;;28.45;15.00;;;6.70;99.90;;;;;;5047374;28;20066;-75
2021/12/04 02:49:46;;;;;;;27.17;14.65;;;6.70;99.90;;;;;;5029573;28;20041;-76
2021/12/04 02:52:14;;;;;;;28.73;15.82;;;6.70;99.90;;;;;;5047427;28;20375;-73
2021/12/04 02:54:40;;;;;;;24.83;14.13;;;6.70;99.90;;;;;;5045944;28;20093;-74
2021/12/04 02:57:08;;;;;;;30.42;15.52;;;6.70;99.90;;;;;;5046192;28;20025;-74
2021/12/04 02:59:37;;;;;;;28.80;15.30;;;6.80;99.90;;;;;;5046121;28;20049;-76
2021/12/04 03:02:05;;;;;;;26.30;13.48;;;7.00;99.90;;;;;;5046164;28;20271;-75
2021/12/04 03:04:32;;;;;;;28.17;14.85;;;7.10;99.90;;;;;;5045754;28;20022;-76
2021/12/04 03:06:58;;;;;;;27.05;14.60;;;7.20;99.90;;;;;;5046991;28;20041;-75
2021/12/04 03:09:24;;;;;;;31.05;15.65;;;7.20;99.90;;;;;;5046796;28;20040;-75
2021/12/04 03:11:50;;;;;;;25.73;15.10;;;7.20;99.90;;;;;;5047139;28;20222;-73
2021/12/04 03:14:17;;;;;;;27.88;15.60;;;7.10;99.90;;;;;;5046504;28;20022;-74
2021/12/04 03:16:43;;;;;;;31.92;15.38;;;7.10;99.90;;;;;;5045741;28;20089;-74
2021/12/04 03:19:09;;;;;;;35.10;16.90;;;7.00;99.90;;;;;;5045302;28;20208;-75
2021/12/04 03:21:37;;;;;;;31.83;16.98;;;7.00;99.90;;;;;;5046943;28;20029;-74
2021/12/04 03:24:06;;;;;;;32.15;16.50;;;7.00;99.90;;;;;;5045739;28;20024;-76
2021/12/04 03:26:33;;;;;;;28.65;16.42;;;7.00;99.90;;;;;;5046457;28;20032;-75
2021/12/04 03:29:02;;;;;;;31.27;16.48;;;7.10;99.90;;;;;;5046536;28;20033;-74
2021/12/04 03:42:30;;;;;;;20.65;11.93;;;7.70;99.90;;;;;;5045039;28;20028;-74
2021/12/04 03:44:56;;;;;;;21.67;12.73;;;7.80;99.90;;;;;;5045063;28;20037;-74
2021/12/04 03:47:22;;;;;;;22.98;14.05;;;7.80;99.90;;;;;;5045843;28;20060;-72
2021/12/04 03:49:49;;;;;;;22.83;14.20;;;7.80;99.90;;;;;;5046099;28;20028;-76
2021/12/04 03:52:15;;;;;;;25.13;14.38;;;7.80;99.90;;;;;;5044892;28;20022;-74
2021/12/04 03:54:41;;;;;;;22.63;14.35;;;7.80;99.90;;;;;;5044873;28;20033;-73
2021/12/04 03:57:07;;;;;;;24.88;14.60;;;7.80;99.90;;;;;;5045997;28;20059;-75
2021/12/04 03:59:36;;;;;;;24.50;13.07;;;7.90;99.90;;;;;;5044965;28;20033;-75
2021/12/04 04:02:04;;;;;;;21.40;13.02;;;7.90;99.90;;;;;;5045144;28;20068;-76
2021/12/04 04:04:30;;;;;;;22.27;12.90;;;7.90;99.90;;;;;;5046002;28;20104;-74
2021/12/04 04:06:59;;;;;;;20.10;11.85;;;8.00;99.90;;;;;;5044706;28;20071;-75
2021/12/04 04:09:25;;;;;;;20.30;11.82;;;8.00;99.90;;;;;;5045808;28;20037;-75
2021/12/04 04:11:51;;;;;;;17.60;11.55;;;8.00;99.90;;;;;;5045046;28;20021;-75
2021/12/04 04:14:17;;;;;;;19.48;11.07;;;8.00;99.90;;;;;;5044726;28;20036;-74
2021/12/04 04:16:43;;;;;;;18.77;10.60;;;8.10;99.90;;;;;;5044534;28;20097;-74
2021/12/04 04:19:10;;;;;;;13.13;9.30;;;8.10;99.90;;;;;;5045354;28;20029;-75
2021/12/04 04:21:41;;;;;;;16.55;9.02;;;8.10;99.90;;;;;;5028120;28;20084;-74
2021/12/04 04:24:09;;;;;;;14.05;9.02;;;8.20;99.90;;;;;;5028965;28;20071;-75
2021/12/04 04:26:35;;;;;;;12.38;9.32;;;8.30;99.90;;;;;;5027654;28;20029;-75
2021/12/04 04:29:01;;;;;;;15.70;9.63;;;8.30;99.90;;;;;;5044294;28;20033;-75
2021/12/04 04:31:28;;;;;;;19.23;10.07;;;8.30;99.90;;;;;;5045293;28;20212;-75
2021/12/04 04:34:00;;;;;;;12.65;4.30;;;8.30;99.90;;;;;;5045606;28;20025;-76
2021/12/04 04:36:49;;;;;;;8.02;4.13;;;8.30;99.90;;;;;;5045704;28;20017;-75
2021/12/04 04:39:59;;;;;;;7.40;2.40;;;8.40;99.90;;;;;;5044396;28;20017;-74
2021/12/04 05:12:25;;;;;;;8.52;1.90;;;7.60;99.90;;;;;;5043743;28;20033;-75
2021/12/04 05:14:57;;;;;;;5.25;2.22;;;7.60;99.90;;;;;;5044646;28;20025;-74
2021/12/04 05:17:41;;;;;;;4.65;1.80;;;7.60;99.90;;;;;;5043368;28;20112;-75
2021/12/04 05:20:08;;;;;;;7.32;1.58;;;7.50;99.90;;;;;;5044169;28;20040;-74
2021/12/04 05:22:33;;;;;;;6.20;1.70;;;7.50;99.90;;;;;;5044450;28;20021;-74
2021/12/04 05:24:59;;;;;;;9.07;1.73;;;7.50;99.90;;;;;;5043443;28;20025;-73
2021/12/04 05:27:25;;;;;;;8.30;1.27;;;7.50;99.90;;;;;;5042749;28;20096;-76
2021/12/04 05:29:50;;;;;;;5.60;1.10;;;7.50;99.90;;;;;;5044392;28;20025;-73
2021/12/04 05:32:16;;;;;;;5.72;1.30;;;7.40;99.90;;;;;;5043118;28;20112;-73
2021/12/04 05:34:42;;;;;;;6.50;0.90;;;7.40;99.90;;;;;;5044281;28;20032;-73
2021/12/04 05:37:09;;;;;;;9.52;1.20;;;7.40;99.90;;;;;;5042998;28;20037;-73
2021/12/04 05:39:35;;;;;;;8.32;1.45;;;7.40;99.90;;;;;;5026518;28;20221;-74
2021/12/04 05:42:01;;;;;;;12.45;1.40;;;7.40;99.90;;;;;;5044206;28;20091;-74
2021/12/04 05:44:29;;;;;;;7.35;1.40;;;7.30;99.90;;;;;;5041574;28;20088;-73
2021/12/04 05:47:01;;;;;;;9.75;1.25;;;7.30;99.90;;;;;;5043967;28;20017;-73
2021/12/04 05:49:34;;;;;;;11.82;1.90;;;7.30;99.90;;;;;;5043568;28;20030;-74
2021/12/04 05:54:57;;;;;;;5.88;0.75;;;7.20;99.90;;;;;;5042874;28;20035;-73
2021/12/04 05:57:23;;;;;;;7.55;1.20;;;7.30;99.90;;;;;;5043808;28;20025;-73
2021/12/04 05:59:49;;;;;;;10.25;1.23;;;7.30;99.90;;;;;;5044129;28;20033;-74
2021/12/04 06:02:16;;;;;;;6.32;0.77;;;7.20;99.90;;;;;;5042875;28;20212;-74
2021/12/04 06:04:42;;;;;;;11.02;1.23;;;7.20;99.90;;;;;;5043893;28;20021;-74
2021/12/04 06:07:08;;;;;;;8.25;1.00;;;7.20;99.90;;;;;;5043374;28;20029;-74
2021/12/04 06:09:33;;;;;;;13.65;1.25;;;7.30;99.90;;;;;;5043774;28;20099;-74
2021/12/04 06:12:04;;;;;;;5.43;1.00;;;7.30;99.90;;;;;;5043992;28;20025;-76
2021/12/04 06:14:31;;;;;;;6.88;1.17;;;7.30;99.90;;;;;;5043864;28;20029;-74
2021/12/04 06:16:58;;;;;;;8.55;1.33;;;7.20;99.90;;;;;;5043797;28;20021;-73
2021/12/04 06:22:36;;;;;;;8.15;1.20;;;7.20;99.90;;;;;;5043184;28;20086;-74
2021/12/04 06:24:54;;;;;;;13.68;1.52;;;7.20;99.90;;;;;;5042815;28;20028;-74
2021/12/04 06:27:20;;;;;;;7.18;1.65;;;7.20;99.90;;;;;;5043739;28;20021;-74
2021/12/04 06:29:46;;;;;;;8.93;1.55;;;7.20;99.90;;;;;;5043464;28;20308;-73
2021/12/04 06:32:11;;;;;;;13.90;1.83;;;7.20;99.10;;;;;;5025909;28;20379;-73
2021/12/04 06:34:37;;;;;;;13.73;1.67;;;7.20;99.30;;;;;;5042465;28;20231;-73
2021/12/04 06:37:03;;;;;;;11.18;1.35;;;7.20;98.80;;;;;;5043593;28;20048;-73
2021/12/04 06:39:28;;;;;;;7.47;1.30;;;7.20;98.80;;;;;;5043413;28;20025;-73
2021/12/04 06:41:54;;;;;;;9.13;1.30;;;7.10;98.90;;;;;;5043676;28;20076;-73
2021/12/04 06:44:20;;;;;;;12.70;1.80;;;7.10;98.40;;;;;;5042264;28;20029;-73
2021/12/04 06:46:46;;;;;;;14.02;1.35;;;7.10;98.50;;;;;;5041841;28;20025;-73
2021/12/04 06:49:18;;;;;;;12.55;1.50;;;7.00;98.50;;;;;;5042904;28;20100;-74
2021/12/04 06:51:48;;;;;;;11.90;1.20;;;7.00;98.30;;;;;;5042454;28;20036;-74
2021/12/04 06:54:25;;;;;;;13.35;2.15;;;6.90;98.20;;;;;;5043485;28;20025;-75
2021/12/04 06:56:50;;;;;;;13.48;1.45;;;7.00;98.20;;;;;;5027430;28;20224;-74
2021/12/04 06:59:22;;;;;;;20.95;2.17;;;6.90;98.00;;;;;;5042083;28;20089;-75
2021/12/04 07:01:48;;;;;;;13.70;1.63;;;7.00;98.00;;;;;;5042569;28;20021;-72
2021/12/04 07:04:16;;;;;;;9.68;1.65;;;6.90;98.00;;;;;;5025823;28;20035;-76
2021/12/04 07:06:42;;;;;;;14.52;1.48;;;6.90;98.10;;;;;;5043452;28;20280;-75
2021/12/04 07:09:08;;;;;;;6.72;1.23;;;6.80;98.50;;;;;;5041598;28;20033;-75
2021/12/04 07:11:34;;;;;;;12.10;1.73;;;6.80;98.20;;;;;;5043250;28;20017;-74
2021/12/04 07:14:00;;;;;;;9.93;1.40;;;6.80;98.20;;;;;;5043310;28;20320;-75
2021/12/04 07:16:27;;;;;;;12.82;1.63;;;6.80;97.80;;;;;;5042207;28;20034;-74
2021/12/04 07:18:53;;;;;;;8.15;1.40;;;6.80;97.70;;;;;;5042829;28;20036;-73
2021/12/04 07:21:19;;;;;;;11.32;1.58;;;6.80;98.10;;;;;;5043014;28;20037;-73
2021/12/04 07:23:44;;;;;;;11.77;1.63;;;6.70;98.20;;;;;;5045838;28;20055;-73
2021/12/04 07:26:10;;;;;;;10.73;1.50;;;6.70;98.20;;;;;;5046762;28;20021;-72
2021/12/04 07:28:37;;;;;;;11.68;1.30;;;6.60;98.40;;;;;;5046299;28;20348;-74
2021/12/04 07:31:03;;;;;;;7.82;1.17;;;6.60;98.50;;;;;;5029200;28;20182;-73
2021/12/04 07:33:29;;;;;;;8.13;1.25;;;6.50;98.60;;;;;;5044986;28;20406;-72
2021/12/04 07:35:57;;;;;;;7.18;1.60;;;6.50;98.20;;;;;;5045552;28;20026;-73
2021/12/04 07:38:23;;;;;;;16.52;1.70;;;6.60;97.90;;;;;;5046408;28;20308;-74
2021/12/04 07:40:49;;;;;;;8.20;1.45;;;6.60;98.10;;;;;;5045134;28;20021;-74
2021/12/04 07:43:15;;;;;;;14.50;1.90;;;6.60;97.70;;;;;;5045307;28;20021;-73
2021/12/04 07:45:41;;;;;;;12.85;2.20;;;6.60;97.80;;;;;;5046420;28;20059;-74
2021/12/04 07:48:08;;;;;;;8.68;1.55;;;6.60;97.90;;;;;;5043383;28;20040;-74
2021/12/04 07:50:35;;;;;;;11.35;2.25;;;6.50;98.10;;;;;;5045678;28;20090;-73
2021/12/04 07:53:00;;;;;;;9.20;1.00;;;6.40;98.40;;;;;;5028915;28;20026;-72
2021/12/04 07:55:26;;;;;;;13.80;1.58;;;6.40;98.10;;;;;;5028509;28;20029;-74
2021/12/04 07:57:53;;;;;;;12.00;1.40;;;6.50;97.80;;;;;;5046227;28;20024;-72
2021/12/04 08:00:21;;;;;;;11.50;1.50;;;6.50;97.70;;;;;;5045919;28;20022;-74
2021/12/04 08:02:48;;;;;;;13.68;1.85;;;6.40;97.70;;;;;;5044923;28;20029;-74
2021/12/04 08:05:15;;;;;;;8.63;1.58;;;6.40;97.70;;;;;;5046085;28;20021;-74
2021/12/04 08:07:41;;;;;;;10.32;1.38;;;6.40;97.50;;;;;;5028476;28;20224;-75
2021/12/04 08:10:12;;;;;;;8.02;1.05;;;6.40;97.80;;;;;;5045793;28;20076;-73
2021/12/04 08:12:38;;;;;;;7.72;1.42;;;6.40;97.70;;;;;;5044745;28;20087;-75
2021/12/04 08:15:07;;;;;;;10.65;1.13;;;6.30;97.70;;;;;;5045885;28;20185;-72
2021/12/04 08:17:33;;;;;;;11.27;1.90;;;6.40;97.80;;;;;;5044400;28;20324;-73
2021/12/04 08:19:59;;;;;;;8.25;1.50;;;6.30;98.00;;;;;;5045226;28;20021;-73
2021/12/04 08:22:25;;;;;;;10.48;1.45;;;6.30;98.10;;;;;;5045597;28;20033;-73
2021/12/04 08:24:51;;;;;;;9.13;1.58;;;6.30;98.10;;;;;;5045317;28;20100;-73
2021/12/04 08:27:17;;;;;;;10.13;2.47;;;6.30;98.10;;;;;;5045471;28;20017;-74
2021/12/04 08:29:43;;;;;;;13.63;2.08;;;6.20;98.00;;;;;;5045341;28;20088;-75
2021/12/04 08:32:10;;;;;;;10.65;1.52;;;6.30;98.10;;;;;;5044311;28;20053;-73
2021/12/04 08:34:37;;;;;;;10.25;1.38;;;6.20;98.20;;;;;;5043031;28;20025;-74
2021/12/04 08:37:03;;;;;;;11.02;1.92;;;6.20;98.40;;;;;;5045510;28;20071;-75
2021/12/04 08:39:29;;;;;;;10.32;1.30;;;6.20;98.50;;;;;;5045081;28;20032;-73
2021/12/04 08:41:55;;;;;;;13.65;1.90;;;6.20;98.50;;;;;;5044197;28;20239;-74
2021/12/04 08:44:21;;;;;;;14.43;1.77;;;6.20;98.40;;;;;;5045164;28;20044;-74
2021/12/04 08:46:47;;;;;;;8.20;1.52;;;6.20;98.50;;;;;;5045218;28;20312;-73
2021/12/04 08:49:13;;;;;;;7.65;1.45;;;6.20;98.30;;;;;;5025491;28;20104;-75
2021/12/04 08:51:42;;;;;;;14.95;1.50;;;6.20;98.70;;;;;;5044979;28;20255;-75
2021/12/04 08:54:08;;;;;;;14.63;1.60;;;6.20;98.30;;;;;;5027799;28;20022;-75
2021/12/04 08:56:34;;;;;;;8.88;1.50;;;6.30;98.60;;;;;;5044946;28;20025;-75
2021/12/04 08:59:00;;;;;;;10.65;1.50;;;6.30;98.50;;;;;;5044954;28;20025;-73
2021/12/04 09:01:30;;;;;;;12.02;1.27;;;6.30;98.50;;;;;;5044547;28;20298;-75
2021/12/04 09:04:04;;;;;;;3.78;1.00;;;6.30;98.50;;;;;;5045021;28;20028;-71
2021/12/04 09:06:31;;;;;;;8.80;1.67;;;6.40;98.20;;;;;;5044725;28;20025;-73
2021/12/04 09:08:58;;;;;;;10.07;1.17;;;6.40;98.00;;;;;;5044370;28;20083;-73
2021/12/04 09:11:29;;;;;;;14.75;1.48;;;6.40;98.10;;;;;;5043517;28;20025;-74
2021/12/04 09:13:55;;;;;;;9.40;2.63;;;6.50;98.10;;;;;;5043700;28;20025;-73
2021/12/04 09:16:23;;;;;;;9.88;1.60;;;6.50;98.30;;;;;;5026918;28;20313;-74
2021/12/04 09:18:49;;;;;;;10.82;1.90;;;6.50;98.30;;;;;;5043438;28;20029;-73
2021/12/04 09:21:16;;;;;;;11.55;1.60;;;6.50;98.30;;;;;;5044053;28;20048;-73
2021/12/04 09:23:47;;;;;;;12.85;1.63;;;6.50;98.40;;;;;;5044711;28;20033;-74
2021/12/04 09:26:26;;;;;;;14.50;1.85;;;6.50;98.20;;;;;;5044380;28;20296;-75
2021/12/04 09:29:05;;;;;;;31.48;2.80;;;6.50;98.10;;;;;;5044199;28;20048;-73
2021/12/04 09:34:34;;;;;;;11.77;1.85;;;6.60;98.00;;;;;;5043271;28;20055;-74
2021/12/04 10:02:08;;;;;;;9.38;1.63;;;6.80;97.90;;;;;;5043009;28;20064;-73
2021/12/04 10:13:54;;;;;;;8.20;1.55;;;6.90;97.90;;;;;;5029320;28;20036;-74
2021/12/04 10:16:24;;;;;;;10.43;1.25;;;6.90;97.70;;;;;;5029340;28;20021;-74
2021/12/04 10:19:17;;;;;;;10.63;1.42;;;7.00;97.60;;;;;;5042388;28;20220;-73
2021/12/04 10:22:01;;;;;;;7.18;1.20;;;7.00;97.90;;;;;;5042746;28;20097;-74
2021/12/04 10:33:08;;;;;;;10.85;1.25;;;7.20;97.10;;;;;;5028622;28;20065;-73
2021/12/04 10:35:35;;;;;;;9.93;1.60;;;7.20;97.20;;;;;;5052093;28;20096;-75
2021/12/04 10:38:04;;;;;;;12.38;1.20;;;7.20;97.70;;;;;;5062248;28;20021;-74
2021/12/04 10:40:38;;;;;;;8.88;1.25;;;7.20;97.50;;;;;;5062803;28;20025;-73
2021/12/04 10:43:12;;;;;;;7.65;1.52;;;7.30;97.20;;;;;;5064542;28;20084;-73
2021/12/04 10:45:42;;;;;;;6.50;1.20;;;7.30;97.20;;;;;;5047790;28;20084;-74
2021/12/04 10:48:14;;;;;;;4.50;1.20;;;7.30;97.30;;;;;;5063680;28;20214;-75
2021/12/04 10:50:48;;;;;;;10.45;1.38;;;7.30;96.60;;;;;;5061237;28;20278;-75
2021/12/04 10:53:20;;;;;;;5.95;1.27;;;7.40;97.40;;;;;;5062263;28;20063;-72
2021/12/04 11:04:17;;;;;;;12.27;1.50;;;7.50;96.70;;;;;;5052438;28;20052;-74
2021/12/04 11:07:22;;;;;;;6.28;1.17;;;7.50;96.90;;;;;;5065953;28;20025;-73
2021/12/04 11:40:49;;;;;;;6.93;1.63;;;7.90;95.40;;;;;;5065373;28;20066;-75
2021/12/04 11:43:18;;;;;;;11.10;1.67;;;7.90;95.00;;;;;;5065241;28;20013;-73
2021/12/04 11:46:17;;;;;;;9.75;1.08;;;8.00;95.20;;;;;;5065323;28;20024;-73
2021/12/04 11:48:36;;;;;;;10.48;1.30;;;8.10;94.90;;;;;;5051322;28;20207;-72
2021/12/04 11:51:09;;;;;;;4.70;1.10;;;8.10;94.50;;;;;;5063451;28;20092;-74
2021/12/04 11:53:35;;;;;;;11.98;1.45;;;8.10;94.20;;;;;;5065056;28;20044;-74
2021/12/04 11:56:01;;;;;;;13.15;2.33;;;8.10;94.50;;;;;;5066465;28;20063;-76
2021/12/04 11:58:32;;;;;;;16.55;1.83;;;8.10;94.50;;;;;;5066005;28;20088;-75
2021/12/04 12:01:04;;;;;;;10.68;1.00;;;8.10;94.60;;;;;;5066268;28;20025;-74
2021/12/04 12:03:34;;;;;;;10.02;1.48;;;8.10;94.00;;;;;;5065955;28;20066;-73
2021/12/04 12:06:04;;;;;;;13.77;1.27;;;8.10;94.40;;;;;;5064582;28;20308;-73
2021/12/04 12:08:33;;;;;;;7.43;1.10;;;8.10;94.40;;;;;;5064407;28;20033;-73
2021/12/04 12:11:22;;;;;;;5.65;0.93;;;8.20;94.50;;;;;;5065007;28;20024;-72
2021/12/04 12:13:51;;;;;;;14.80;1.60;;;8.20;94.00;;;;;;5051305;28;20012;-72
2021/12/04 12:16:23;;;;;;;5.50;1.00;;;8.20;94.20;;;;;;5065843;28;20021;-73
2021/12/04 12:18:57;;;;;;;9.38;1.75;;;8.30;93.60;;;;;;5065565;28;20033;-73
2021/12/04 12:21:53;;;;;;;12.15;1.35;;;8.30;93.60;;;;;;5064311;28;20045;-73
2021/12/04 12:27:51;;;;;;;9.63;1.20;;;8.40;93.40;;;;;;5037351;28;20031;-74
2021/12/04 12:33:40;;;;;;;;;;;8.40;92.60;;;;;;5050814;28;20248;-73
2021/12/04 12:36:10;;;;;;;11.77;1.00;;;8.40;93.00;;;;;;5064499;28;19900;-77
2021/12/04 12:39:13;;;;;;;8.90;1.63;;;8.40;92.90;;;;;;5064191;28;20115;-74
2021/12/04 12:41:46;;;;;;;12.43;1.50;;;8.60;93.10;;;;;;5064613;28;20050;-73
2021/12/04 12:44:18;;;;;;;10.68;1.50;;;8.70;92.50;;;;;;5047229;28;20020;-74
2021/12/04 12:47:04;;;;;;;9.45;1.38;;;8.80;92.60;;;;;;5065153;28;20049;-75
2021/12/04 12:49:36;;;;;;;9.02;1.30;;;8.90;92.30;;;;;;5063819;28;20107;-73
2021/12/04 12:52:08;;;;;;;4.57;0.88;;;8.90;91.90;;;;;;5063429;28;20029;-73
2021/12/04 12:54:37;;;;;;;4.28;0.95;;;9.00;91.90;;;;;;5064768;28;20215;-73
2021/12/04 12:57:10;;;;;;;10.90;1.73;;;8.90;91.90;;;;;;5064023;28;20021;-74
2021/12/04 12:59:58;;;;;;;11.32;1.65;;;8.80;92.10;;;;;;5063998;28;20025;-72
2021/12/04 13:14:14;;;;;;;11.23;1.35;;;8.60;91.70;;;;;;5063724;28;20051;-75
2021/12/04 13:16:43;;;;;;;5.22;1.25;;;8.60;91.70;;;;;;5046992;28;20024;-74
2021/12/04 13:19:12;;;;;;;9.32;1.27;;;8.70;91.00;;;;;;5063775;28;20028;-72
2021/12/04 13:21:41;;;;;;;11.40;1.33;;;8.80;90.90;;;;;;5064213;28;20033;-72
2021/12/04 13:24:10;;;;;;;7.90;1.00;;;8.80;91.00;;;;;;5064554;28;20074;-72
2021/12/04 13:26:40;;;;;;;8.02;1.40;;;8.80;91.10;;;;;;5063003;28;20024;-72
2021/12/04 13:29:08;;;;;;;7.80;1.33;;;8.90;90.90;;;;;;5064301;28;20028;-72
2021/12/04 13:31:38;;;;;;;6.32;1.08;;;8.90;90.70;;;;;;5062977;28;20029;-74
2021/12/04 13:34:08;;;;;;;10.25;1.30;;;8.80;90.60;;;;;;5064397;28;20013;-74
2021/12/04 13:36:34;;;;;;;10.52;1.55;;;8.80;91.00;;;;;;5062911;28;20357;-74
2021/12/04 13:39:05;;;;;;;9.90;0.90;;;8.80;91.10;;;;;;5064261;28;20092;-72
2021/12/04 13:41:32;;;;;;;15.20;3.20;;;8.80;90.90;;;;;;5064302;28;20304;-73
2021/12/04 13:44:00;;;;;;;7.20;1.40;;;8.90;90.90;;;;;;5063066;28;20033;-74
2021/12/04 13:46:26;;;;;;;9.27;1.38;;;8.90;91.00;;;;;;5063904;28;20067;-74
2021/12/04 13:48:59;;;;;;;7.45;1.58;;;8.90;91.10;;;;;;5063989;28;20029;-73
2021/12/04 13:51:25;;;;;;;7.43;1.30;;;9.00;90.90;;;;;;5062464;28;20029;-74
2021/12/04 13:53:51;;;;;;;11.55;1.20;;;9.00;90.50;;;;;;5062356;28;20055;-73
2021/12/04 13:56:22;;;;;;;4.22;0.70;;;9.00;90.20;;;;;;5062774;28;20023;-73
2021/12/04 13:58:54;;;;;;;9.45;1.15;;;9.00;90.00;;;;;;5063843;28;20029;-73
2021/12/04 14:01:21;;;;;;;4.65;0.90;;;9.00;90.20;;;;;;5064302;28;20039;-74
2021/12/04 14:03:48;;;;;;;6.15;1.02;;;9.10;90.10;;;;;;5063076;28;20040;-73
2021/12/04 14:06:17;;;;;;;5.32;1.08;;;9.10;89.80;;;;;;5062617;28;20077;-75
2021/12/04 14:08:54;;;;;;;8.15;1.25;;;9.10;90.00;;;;;;5046131;28;20230;-76
2021/12/04 14:11:28;;;;;;;14.18;1.63;;;9.00;90.10;;;;;;5046105;28;20016;-73
2021/12/04 14:13:53;;;;;;;5.50;1.35;;;9.00;90.10;;;;;;5062790;28;20056;-73
2021/12/04 14:16:23;;;;;;;12.43;1.20;;;9.00;90.30;;;;;;5063684;28;20024;-75
2021/12/04 14:18:49;;;;;;;8.88;1.30;;;9.00;90.20;;;;;;5063641;28;20037;-76
2021/12/04 14:21:15;;;;;;;3.65;0.80;;;9.00;91.00;;;;;;5063414;28;20080;-75
2021/12/04 14:23:47;;;;;;;8.18;1.35;;;9.00;90.30;;;;;;5062702;28;20312;-75
2021/12/04 14:26:15;;;;;;;8.95;1.40;;;8.90;90.60;;;;;;5063658;28;20244;-74
2021/12/04 14:28:44;;;;;;;11.23;1.20;;;8.80;90.80;;;;;;5061947;28;20423;-74
2021/12/04 14:31:12;;;;;;;7.22;1.30;;;8.70;91.20;;;;;;5047604;28;20207;-74
2021/12/04 14:33:40;;;;;;;13.00;1.70;;;8.70;91.10;;;;;;5066433;28;20343;-73
2021/12/04 14:36:06;;;;;;;13.27;1.55;;;8.70;91.30;;;;;;5049702;28;20021;-73
2021/12/04 14:38:33;;;;;;;10.23;1.48;;;8.60;91.00;;;;;;5066377;28;20021;-73
2021/12/04 14:41:04;;;;;;;8.27;1.40;;;8.70;91.20;;;;;;5050111;28;20080;-74
2021/12/04 14:43:35;;;;;;;6.43;1.25;;;8.70;91.20;;;;;;5050391;28;20304;-72
2021/12/04 14:46:01;;;;;;;7.97;1.03;;;8.70;91.20;;;;;;5066410;28;20024;-74
2021/12/04 14:48:33;;;;;;;9.15;1.70;;;8.70;91.30;;;;;;5033133;28;20032;-74
2021/12/04 14:51:06;;;;;;;9.98;1.48;;;8.80;91.50;;;;;;5067131;28;20062;-74
2021/12/04 14:53:34;;;;;;;10.43;1.30;;;8.80;91.10;;;;;;5065969;28;20025;-73
2021/12/04 14:56:05;;;;;;;12.98;2.13;;;8.80;89.50;;;;;;5032955;28;20259;-73
2021/12/04 14:58:31;;;;;;;8.07;1.63;;;8.80;90.30;;;;;;5066047;28;20013;-75
2021/12/04 15:01:02;;;;;;;1.58;0.43;;;8.80;90.00;;;;;;5066263;28;20128;-74
2021/12/04 15:03:36;;;;;;;14.30;1.67;;;8.70;89.60;;;;;;5066859;28;20331;-73
2021/12/04 15:06:06;;;;;;;10.55;1.60;;;8.70;89.50;;;;;;5049750;28;20250;-72
2021/12/04 15:08:35;;;;;;;16.88;1.52;;;8.60;90.10;;;;;;5049019;28;20066;-72
2021/12/04 15:11:10;;;;;;;7.60;1.23;;;8.50;90.20;;;;;;5049752;28;20016;-73
2021/12/04 15:13:42;;;;;;;10.82;1.33;;;8.50;90.30;;;;;;5067106;28;20044;-74
2021/12/04 15:16:08;;;;;;;;;;;8.40;90.40;;;;;;5050508;28;20226;-75
2021/12/04 15:18:38;;;;;;;7.68;1.33;;;8.40;90.40;;;;;;5065508;28;19900;-74
2021/12/04 15:21:13;;;;;;;9.35;1.88;;;8.40;90.50;;;;;;5065378;28;20041;-74
2021/12/04 15:23:39;;;;;;;10.38;1.42;;;8.30;90.60;;;;;;5065840;28;20088;-73
2021/12/04 15:26:11;;;;;;;6.25;1.10;;;8.40;90.90;;;;;;5065745;28;20025;-74
2021/12/04 15:28:42;;;;;;;8.00;1.17;;;8.30;91.00;;;;;;5065165;28;20060;-74
2021/12/04 15:31:08;;;;;;;4.63;1.00;;;8.30;90.70;;;;;;5049117;28;20052;-73
2021/12/04 15:33:37;;;;;;;7.88;1.27;;;8.30;91.00;;;;;;5066630;28;20049;-74
2021/12/04 15:36:04;;;;;;;9.60;1.25;;;8.30;90.80;;;;;;5066678;28;20345;-76
2021/12/04 15:38:41;;;;;;;5.72;0.93;;;8.20;91.40;;;;;;5065136;28;20350;-72